Time;durP1;ratioP1;P1;durP2;ratioP2;P2;SDS_P1;SDS_P2;PMS_P1;PMS_P2;Temp;Humidity;BMP_temperature;BMP_pressure;BME280_temperature;BME280_humidity;BME280_pressure;Samples;Min_cycle;Max_cycle;Signal;HPM_P1;HPM_P2
2021/06/19 00:00:18;;;;;;;2.40;1.67;;;22.00;77.50;;;;;;4688271;30;20049;-76
2021/06/19 00:02:46;;;;;;;3.00;1.73;;;22.00;77.50;;;;;;4699724;30;20056;-76
2021/06/19 00:05:14;;;;;;;2.67;1.70;;;22.00;77.60;;;;;;4681146;30;20082;-76
2021/06/19 00:07:41;;;;;;;2.88;1.52;;;22.00;77.60;;;;;;4690312;30;20065;-75
2021/06/19 00:10:09;;;;;;;3.83;2.00;;;22.00;77.70;;;;;;4679749;30;20053;-76
2021/06/19 00:12:37;;;;;;;4.63;2.38;;;21.90;77.80;;;;;;4678743;30;20145;-74
2021/06/19 00:15:09;;;;;;;3.72;1.80;;;21.90;78.00;;;;;;4708678;30;20049;-76
2021/06/19 00:17:37;;;;;;;4.07;2.10;;;21.90;78.00;;;;;;4692113;30;20127;-78
2021/06/19 00:20:17;;;;;;;3.53;2.35;;;21.90;78.10;;;;;;4705439;30;20049;-76
2021/06/19 00:22:45;;;;;;;6.15;2.15;;;21.90;78.20;;;;;;4689134;30;20403;-76
2021/06/19 00:25:14;;;;;;;4.95;2.13;;;21.80;78.30;;;;;;4690362;30;20045;-76
2021/06/19 00:27:42;;;;;;;3.90;2.45;;;21.80;78.40;;;;;;4698159;30;20161;-76
2021/06/19 00:30:13;;;;;;;2.90;1.80;;;21.80;78.50;;;;;;4669718;30;20466;-76
2021/06/19 00:32:41;;;;;;;3.88;1.98;;;21.80;78.50;;;;;;4697540;30;20045;-77
2021/06/19 00:35:09;;;;;;;3.75;2.20;;;21.80;78.60;;;;;;4678521;30;20062;-77
2021/06/19 00:37:37;;;;;;;3.38;2.25;;;21.80;78.60;;;;;;4682006;30;20088;-77
2021/06/19 00:40:12;;;;;;;2.95;1.83;;;21.80;78.70;;;;;;4682245;30;20054;-77
2021/06/19 00:42:48;;;;;;;4.10;2.13;;;21.70;79.30;;;;;;4687946;30;20045;-77
2021/06/19 00:45:15;;;;;;;3.97;2.13;;;21.70;78.80;;;;;;4690781;30;20053;-77
2021/06/19 00:47:42;;;;;;;4.20;2.40;;;21.70;78.80;;;;;;4662626;30;20050;-76
2021/06/19 00:50:11;;;;;;;3.35;1.85;;;21.70;78.80;;;;;;4697298;30;20113;-76
2021/06/19 00:52:39;;;;;;;4.15;2.58;;;21.60;78.90;;;;;;4707722;30;20065;-77
2021/06/19 00:55:06;;;;;;;3.33;2.10;;;21.60;78.90;;;;;;4704500;30;20132;-77
2021/06/19 00:57:33;;;;;;;4.25;2.28;;;21.60;78.90;;;;;;4689258;30;20139;-76
2021/06/19 01:00:01;;;;;;;5.05;2.22;;;21.60;79.00;;;;;;4704826;30;20116;-77
2021/06/19 01:02:29;;;;;;;3.22;1.80;;;21.60;79.10;;;;;;4695448;30;20104;-77
2021/06/19 01:04:56;;;;;;;3.33;2.00;;;21.50;79.10;;;;;;4696388;30;20053;-77
2021/06/19 01:07:24;;;;;;;4.60;2.60;;;21.50;79.20;;;;;;4685005;30;20049;-76
2021/06/19 01:09:51;;;;;;;3.92;1.92;;;21.50;79.30;;;;;;4699906;30;20052;-76
2021/06/19 01:12:23;;;;;;;4.55;2.05;;;21.50;79.30;;;;;;4670515;30;20061;-76
2021/06/19 01:14:54;;;;;;;3.42;1.98;;;21.50;79.40;;;;;;4680753;30;20054;-76
2021/06/19 01:17:23;;;;;;;3.72;1.98;;;21.50;79.40;;;;;;4702701;30;20049;-77
2021/06/19 01:20:06;;;;;;;4.00;2.50;;;21.50;79.50;;;;;;4697609;30;20080;-77
2021/06/19 01:22:34;;;;;;;3.80;1.90;;;21.50;79.50;;;;;;4694427;30;20107;-76
2021/06/19 01:25:04;;;;;;;4.43;2.22;;;21.40;79.50;;;;;;4704316;30;20057;-76
2021/06/19 01:27:32;;;;;;;3.33;1.63;;;21.40;79.50;;;;;;4683469;30;20041;-77
2021/06/19 01:30:02;;;;;;;3.65;1.90;;;21.40;79.60;;;;;;4690361;30;20377;-77
2021/06/19 01:32:37;;;;;;;2.20;1.50;;;21.40;79.60;;;;;;4672558;30;20119;-76
2021/06/19 01:35:06;;;;;;;3.08;1.33;;;21.40;79.50;;;;;;4699070;30;20057;-77
2021/06/19 01:37:33;;;;;;;1.75;1.10;;;21.40;79.40;;;;;;4681434;30;20073;-77
2021/06/19 01:40:08;;;;;;;1.25;0.90;;;21.40;80.10;;;;;;4703234;30;20179;-77
2021/06/19 01:42:43;;;;;;;1.98;0.80;;;21.40;79.30;;;;;;4691489;30;20052;-76
2021/06/19 01:45:14;;;;;;;3.85;0.70;;;21.50;79.20;;;;;;4683954;30;20488;-76
2021/06/19 01:47:41;;;;;;;1.70;0.83;;;21.50;79.10;;;;;;4704534;30;20050;-77
2021/06/19 01:50:15;;;;;;;1.40;0.68;;;21.40;79.00;;;;;;4678106;30;20786;-76
2021/06/19 01:52:43;;;;;;;0.88;0.40;;;21.50;79.00;;;;;;4692608;30;20507;-77
2021/06/19 01:55:11;;;;;;;1.10;0.60;;;21.50;78.90;;;;;;4680822;30;20046;-77
2021/06/19 01:57:38;;;;;;;1.10;0.60;;;21.50;78.90;;;;;;4695931;30;20076;-76
2021/06/19 02:00:10;;;;;;;1.30;0.70;;;21.50;78.90;;;;;;4701551;30;20084;-76
2021/06/19 02:02:39;;;;;;;1.17;0.60;;;21.50;78.70;;;;;;4707542;30;20049;-77
2021/06/19 02:05:08;;;;;;;1.10;0.60;;;21.50;78.60;;;;;;4696522;30;20053;-76
2021/06/19 02:08:10;;;;;;;1.17;0.50;;;21.50;78.60;;;;;;4690546;30;20073;-76
2021/06/19 02:10:39;;;;;;;1.37;0.60;;;21.50;78.40;;;;;;4646866;30;20469;-76
2021/06/19 02:13:07;;;;;;;1.90;0.40;;;21.50;78.50;;;;;;4675478;30;20125;-76
2021/06/19 02:15:37;;;;;;;1.83;0.50;;;21.50;78.50;;;;;;4684235;30;20076;-76
2021/06/19 02:18:04;;;;;;;1.48;0.50;;;21.50;78.50;;;;;;4688060;30;20046;-76
2021/06/19 02:20:32;;;;;;;1.15;0.50;;;21.50;78.50;;;;;;4684269;30;20554;-76
2021/06/19 02:23:00;;;;;;;1.63;0.82;;;21.50;78.50;;;;;;4689193;30;20562;-76
2021/06/19 02:25:29;;;;;;;1.55;0.50;;;21.50;78.50;;;;;;4686918;30;20069;-76
2021/06/19 02:28:00;;;;;;;1.60;0.50;;;21.50;78.50;;;;;;4686597;30;20054;-76
2021/06/19 02:30:31;;;;;;;1.50;0.60;;;21.50;78.50;;;;;;4696182;30;20049;-76
2021/06/19 02:32:59;;;;;;;1.20;0.60;;;21.50;78.50;;;;;;4680237;30;20534;-76
2021/06/19 02:35:30;;;;;;;0.90;0.50;;;21.50;78.50;;;;;;4685402;30;20420;-76
2021/06/19 02:37:57;;;;;;;1.90;0.80;;;21.50;78.40;;;;;;4681364;30;20516;-77
2021/06/19 02:40:25;;;;;;;1.23;0.65;;;21.50;78.50;;;;;;4673575;30;20121;-76
2021/06/19 02:42:53;;;;;;;1.13;0.60;;;21.50;78.50;;;;;;4688741;30;20108;-76
2021/06/19 02:45:20;;;;;;;0.93;0.63;;;21.40;78.40;;;;;;4690479;30;20045;-76
2021/06/19 02:47:53;;;;;;;0.77;0.50;;;21.40;78.40;;;;;;4680449;30;20521;-76
2021/06/19 02:50:24;;;;;;;1.35;0.50;;;21.40;78.50;;;;;;4681236;30;20065;-76
2021/06/19 02:52:52;;;;;;;0.98;0.52;;;21.40;78.50;;;;;;4690728;30;20085;-76
2021/06/19 02:55:25;;;;;;;0.85;0.50;;;21.40;78.60;;;;;;4694178;30;20061;-77
2021/06/19 02:57:52;;;;;;;0.98;0.60;;;21.40;78.50;;;;;;4687470;30;20061;-77
2021/06/19 03:00:21;;;;;;;1.30;0.70;;;21.50;78.50;;;;;;4680335;30;20046;-77
2021/06/19 03:02:49;;;;;;;0.93;0.50;;;21.50;78.40;;;;;;4680137;30;20058;-77
2021/06/19 03:05:19;;;;;;;0.95;0.52;;;21.60;78.30;;;;;;4670435;30;20062;-76
2021/06/19 03:07:47;;;;;;;1.23;0.68;;;21.60;78.20;;;;;;4693166;30;20069;-76
2021/06/19 03:10:20;;;;;;;0.98;0.60;;;21.70;78.10;;;;;;4693078;30;20081;-76
2021/06/19 03:12:48;;;;;;;2.10;0.73;;;21.80;78.00;;;;;;4701722;30;20183;-76
2021/06/19 03:15:15;;;;;;;1.10;0.60;;;21.80;78.00;;;;;;4704246;30;20417;-77
2021/06/19 03:17:43;;;;;;;1.20;0.73;;;21.80;77.90;;;;;;4694729;30;20120;-76
2021/06/19 03:20:12;;;;;;;1.52;0.70;;;21.90;77.90;;;;;;4683946;30;20046;-77
2021/06/19 03:22:52;;;;;;;1.23;0.60;;;21.90;77.80;;;;;;4685239;30;20573;-76
2021/06/19 03:25:22;;;;;;;1.15;0.60;;;22.00;77.70;;;;;;4690235;30;20054;-76
2021/06/19 03:27:55;;;;;;;1.00;0.52;;;22.00;77.80;;;;;;4702414;30;20053;-76
2021/06/19 03:30:23;;;;;;;1.08;0.68;;;22.00;77.70;;;;;;4683430;30;20057;-76
2021/06/19 03:32:50;;;;;;;2.13;0.98;;;22.00;77.70;;;;;;4702511;30;20049;-76
2021/06/19 03:35:18;;;;;;;1.50;0.73;;;22.00;77.70;;;;;;4687006;30;20123;-77
2021/06/19 03:37:46;;;;;;;1.13;0.70;;;22.00;77.70;;;;;;4694595;30;20085;-76
2021/06/19 03:40:15;;;;;;;2.65;1.00;;;22.10;77.70;;;;;;4708410;30;20128;-76
2021/06/19 03:42:44;;;;;;;1.20;0.52;;;22.10;77.70;;;;;;4701854;30;20071;-76
2021/06/19 03:45:12;;;;;;;2.35;0.80;;;22.10;77.70;;;;;;4699070;30;20050;-77
2021/06/19 03:47:40;;;;;;;2.08;1.00;;;22.10;77.70;;;;;;4690331;30;20132;-76
2021/06/19 03:50:13;;;;;;;2.35;1.10;;;22.10;77.60;;;;;;4677480;30;20049;-75
2021/06/19 03:52:40;;;;;;;1.67;0.90;;;22.10;77.60;;;;;;4691366;30;20491;-76
2021/06/19 03:55:09;;;;;;;1.58;0.98;;;22.10;77.50;;;;;;4695200;30;20146;-76
2021/06/19 03:57:36;;;;;;;2.08;0.95;;;22.10;77.50;;;;;;4684573;30;20057;-76
2021/06/19 04:00:07;;;;;;;2.33;1.20;;;22.20;77.50;;;;;;4707069;30;20133;-76
2021/06/19 04:02:39;;;;;;;1.88;1.10;;;22.10;77.40;;;;;;4705009;30;20516;-76
2021/06/19 04:05:07;;;;;;;2.92;1.02;;;22.10;77.40;;;;;;4692633;30;20050;-77
2021/06/19 04:07:34;;;;;;;1.60;0.90;;;22.20;77.30;;;;;;4696072;30;20112;-75
2021/06/19 04:10:03;;;;;;;1.40;0.88;;;22.20;77.30;;;;;;4652256;30;20051;-75
2021/06/19 04:12:30;;;;;;;2.20;1.30;;;22.30;77.30;;;;;;4708014;30;20088;-75
2021/06/19 04:14:57;;;;;;;2.03;1.30;;;22.30;77.20;;;;;;4684650;30;20053;-75
2021/06/19 04:17:24;;;;;;;2.30;1.13;;;22.30;77.10;;;;;;4686697;30;20057;-76
2021/06/19 04:19:51;;;;;;;2.75;1.27;;;22.20;77.10;;;;;;4689926;30;20045;-75
2021/06/19 04:22:18;;;;;;;1.77;1.25;;;22.20;77.10;;;;;;4696385;30;20478;-75
2021/06/19 04:24:45;;;;;;;2.47;1.50;;;22.30;77.10;;;;;;4690540;30;20057;-75
2021/06/19 04:27:15;;;;;;;2.13;1.35;;;22.30;77.10;;;;;;4691524;30;20515;-76
2021/06/19 04:29:43;;;;;;;4.18;1.40;;;22.30;77.00;;;;;;4690733;30;20152;-76
2021/06/19 04:32:12;;;;;;;2.28;1.38;;;22.30;76.90;;;;;;4705837;30;20072;-76
2021/06/19 04:34:40;;;;;;;2.03;1.30;;;22.30;76.90;;;;;;4690917;30;20108;-75
2021/06/19 04:37:14;;;;;;;2.80;1.20;;;22.30;76.90;;;;;;4688704;30;20049;-76
2021/06/19 04:39:51;;;;;;;1.73;1.10;;;22.30;76.80;;;;;;4711391;30;20094;-76
2021/06/19 04:42:19;;;;;;;2.63;1.17;;;22.30;76.80;;;;;;4679310;30;20118;-75
2021/06/19 04:47:24;;;;;;;2.38;1.40;;;22.30;76.80;;;;;;4690759;30;20046;-76
2021/06/19 04:49:56;;;;;;;1.50;0.95;;;22.30;76.70;;;;;;4698997;30;20083;-75
2021/06/19 04:52:23;;;;;;;2.17;1.27;;;22.40;76.60;;;;;;4700334;30;20049;-76
2021/06/19 04:54:53;;;;;;;1.55;1.05;;;22.40;76.60;;;;;;4699721;30;20323;-75
2021/06/19 04:57:21;;;;;;;1.38;0.70;;;22.40;76.50;;;;;;4709426;30;20045;-76
2021/06/19 04:59:48;;;;;;;1.63;0.80;;;22.50;76.50;;;;;;4682087;30;20410;-76
2021/06/19 05:02:15;;;;;;;1.35;0.80;;;22.50;76.40;;;;;;4702753;30;20049;-76
2021/06/19 05:04:43;;;;;;;1.75;1.10;;;22.50;76.50;;;;;;4684135;30;20133;-76
2021/06/19 05:07:11;;;;;;;2.28;1.13;;;22.50;77.20;;;;;;4683438;30;20104;-76
2021/06/19 05:09:39;;;;;;;2.83;1.27;;;22.50;76.50;;;;;;4682863;30;20058;-76
2021/06/19 05:12:08;;;;;;;1.63;0.90;;;22.50;76.50;;;;;;4686161;30;20057;-76
2021/06/19 05:14:36;;;;;;;2.40;1.10;;;22.40;76.50;;;;;;4682785;30;20069;-76
2021/06/19 05:17:03;;;;;;;2.90;1.20;;;22.50;76.50;;;;;;4692453;30;20049;-76
2021/06/19 05:19:31;;;;;;;1.27;0.75;;;22.50;76.40;;;;;;4700856;30;20479;-76
2021/06/19 05:21:58;;;;;;;1.60;0.80;;;22.50;76.30;;;;;;4685159;30;20045;-76
2021/06/19 05:24:26;;;;;;;2.15;0.90;;;22.60;76.30;;;;;;4692233;30;20069;-76
2021/06/19 05:26:53;;;;;;;2.00;0.95;;;22.70;76.20;;;;;;4698695;30;20451;-76
2021/06/19 05:29:20;;;;;;;2.40;1.00;;;22.70;76.10;;;;;;4694172;30;20120;-76
2021/06/19 05:31:47;;;;;;;2.17;1.52;;;22.80;76.00;;;;;;4682494;30;20045;-76
2021/06/19 05:34:14;;;;;;;2.00;1.40;;;22.90;75.90;;;;;;4677061;30;20087;-76
2021/06/19 05:36:41;;;;;;;2.97;1.75;;;22.90;75.70;;;;;;4683629;30;20045;-76
2021/06/19 05:39:08;;;;;;;3.35;1.75;;;22.80;75.70;;;;;;4683450;30;20077;-76
2021/06/19 05:41:36;;;;;;;5.53;1.75;;;22.80;75.70;;;;;;4697200;30;20128;-76
2021/06/19 05:44:07;;;;;;;2.42;1.48;;;22.70;75.70;;;;;;4693109;30;20048;-76
2021/06/19 05:46:35;;;;;;;2.28;1.50;;;22.70;75.60;;;;;;4669042;30;20054;-76
2021/06/19 05:49:03;;;;;;;2.55;1.70;;;22.70;75.50;;;;;;4707876;30;20054;-75
2021/06/19 05:51:30;;;;;;;3.03;1.42;;;22.80;75.40;;;;;;4704923;30;20069;-77
2021/06/19 05:53:58;;;;;;;1.90;1.23;;;22.90;75.30;;;;;;4703373;30;20054;-76
2021/06/19 05:56:25;;;;;;;2.20;1.63;;;22.90;75.10;;;;;;4682094;30;20475;-76
2021/06/19 05:58:52;;;;;;;2.25;1.45;;;22.90;75.10;;;;;;4698425;30;20049;-76
2021/06/19 06:01:19;;;;;;;2.60;1.58;;;22.80;75.00;;;;;;4702156;30;20577;-76
2021/06/19 06:03:48;;;;;;;2.47;1.80;;;22.80;75.10;;;;;;4700316;30;20056;-76
2021/06/19 06:06:16;;;;;;;2.20;1.50;;;22.70;75.00;;;;;;4694743;30;20432;-76
2021/06/19 06:08:44;;;;;;;2.80;2.05;;;22.70;75.10;;;;;;4678055;30;20123;-76
2021/06/19 06:11:11;;;;;;;3.22;1.45;;;22.60;75.10;;;;;;4671948;30;20076;-75
2021/06/19 06:13:39;;;;;;;2.97;1.77;;;22.60;75.10;;;;;;4692189;30;20058;-76
2021/06/19 06:16:06;;;;;;;4.75;3.10;;;22.70;75.10;;;;;;4689907;30;20065;-76
2021/06/19 06:18:34;;;;;;;3.28;2.60;;;22.60;75.10;;;;;;4686981;30;20062;-75
2021/06/19 06:21:02;;;;;;;6.75;4.63;;;22.60;75.10;;;;;;4689394;30;20140;-76
2021/06/19 06:23:29;;;;;;;5.60;3.90;;;22.60;75.10;;;;;;4691007;30;20050;-76
2021/06/19 06:25:56;;;;;;;6.75;5.22;;;22.60;75.10;;;;;;4682505;30;20054;-77
2021/06/19 06:28:24;;;;;;;9.60;6.32;;;22.70;74.90;;;;;;4681385;30;20460;-76
2021/06/19 06:30:51;;;;;;;9.55;7.45;;;22.60;74.90;;;;;;4678701;30;20057;-76
2021/06/19 06:33:20;;;;;;;10.00;6.93;;;22.60;75.10;;;;;;4673868;30;20046;-76
2021/06/19 06:35:47;;;;;;;9.82;7.40;;;22.50;75.20;;;;;;4680958;30;20785;-75
2021/06/19 06:38:14;;;;;;;9.77;7.63;;;22.40;75.20;;;;;;4681826;30;20050;-76
2021/06/19 06:40:41;;;;;;;10.18;7.07;;;22.40;75.20;;;;;;4681190;30;20140;-76
2021/06/19 06:43:08;;;;;;;12.32;8.80;;;22.50;75.10;;;;;;4676448;30;20045;-76
2021/06/19 06:45:35;;;;;;;12.73;9.15;;;22.50;74.60;;;;;;4690923;30;20104;-76
2021/06/19 06:48:02;;;;;;;14.20;9.13;;;22.50;74.40;;;;;;4681179;30;20613;-76
2021/06/19 06:50:29;;;;;;;14.57;11.25;;;22.40;74.20;;;;;;4677296;30;20560;-77
2021/06/19 06:52:56;;;;;;;13.05;9.88;;;22.40;73.90;;;;;;4684353;30;20111;-76
2021/06/19 06:55:24;;;;;;;14.07;9.50;;;22.40;73.80;;;;;;4693060;30;20057;-76
2021/06/19 06:57:51;;;;;;;13.27;8.95;;;22.50;73.20;;;;;;4684690;30;20078;-77
2021/06/19 07:00:19;;;;;;;12.40;8.88;;;22.50;73.00;;;;;;4683563;30;20116;-76
2021/06/19 07:02:46;;;;;;;13.40;8.50;;;22.50;72.80;;;;;;4688445;30;20058;-76
2021/06/19 07:05:14;;;;;;;12.68;8.40;;;22.60;72.80;;;;;;4685894;30;20100;-76
2021/06/19 07:07:42;;;;;;;13.45;7.95;;;22.70;72.50;;;;;;4667557;30;20054;-75
2021/06/19 07:10:11;;;;;;;10.02;6.72;;;22.90;71.90;;;;;;4664494;30;20165;-76
2021/06/19 07:12:42;;;;;;;8.95;6.85;;;23.10;71.40;;;;;;4695040;30;20057;-76
2021/06/19 07:15:11;;;;;;;9.77;6.40;;;23.20;70.70;;;;;;4684821;30;20176;-76
2021/06/19 07:17:40;;;;;;;9.52;5.75;;;23.10;71.20;;;;;;4704389;30;20458;-76
2021/06/19 07:20:09;;;;;;;8.90;5.80;;;23.20;70.70;;;;;;4708457;30;20077;-76
2021/06/19 07:22:37;;;;;;;9.73;5.15;;;23.20;70.60;;;;;;4671305;30;20054;-75
2021/06/19 07:25:06;;;;;;;6.82;4.85;;;23.30;70.30;;;;;;4698314;30;20565;-74
2021/06/19 07:27:33;;;;;;;6.32;4.55;;;23.40;69.80;;;;;;4703992;30;20053;-68
2021/06/19 07:30:00;;;;;;;6.28;4.45;;;23.50;69.60;;;;;;4682606;30;20133;-69
2021/06/19 07:32:28;;;;;;;7.22;5.07;;;23.60;69.30;;;;;;4667810;30;20064;-69
2021/06/19 07:34:54;;;;;;;7.20;5.00;;;23.60;69.20;;;;;;4701486;30;20115;-69
2021/06/19 07:37:22;;;;;;;7.20;4.80;;;23.60;68.90;;;;;;4701840;30;20119;-69
2021/06/19 07:39:52;;;;;;;8.35;5.68;;;23.60;69.00;;;;;;4691469;30;20058;-69
2021/06/19 07:42:21;;;;;;;7.65;5.55;;;23.50;68.50;;;;;;4686421;30;20167;-69
2021/06/19 07:44:48;;;;;;;10.30;6.70;;;23.50;68.70;;;;;;4681660;30;20182;-69
2021/06/19 07:47:16;;;;;;;8.05;6.10;;;23.60;68.20;;;;;;4699025;30;20446;-69
2021/06/19 07:49:43;;;;;;;7.22;4.82;;;23.60;68.10;;;;;;4705793;30;20052;-68
2021/06/19 07:52:11;;;;;;;7.10;5.40;;;23.60;68.10;;;;;;4669530;30;20092;-68
2021/06/19 07:54:39;;;;;;;6.78;4.15;;;23.70;68.00;;;;;;4669392;30;20136;-69
2021/06/19 07:57:07;;;;;;;8.18;4.85;;;23.70;67.60;;;;;;4697829;30;20605;-69
2021/06/19 07:59:35;;;;;;;6.80;4.97;;;23.70;67.70;;;;;;4687231;30;20498;-69
2021/06/19 08:02:05;;;;;;;7.05;5.13;;;23.60;67.60;;;;;;4699406;30;20044;-70
2021/06/19 08:04:36;;;;;;;8.90;5.45;;;23.50;67.90;;;;;;4686427;30;20076;-68
2021/06/19 08:07:04;;;;;;;11.15;6.80;;;23.50;67.50;;;;;;4686380;30;20084;-68
2021/06/19 08:09:31;;;;;;;7.43;5.82;;;23.40;67.60;;;;;;4699051;30;20061;-68
2021/06/19 08:12:00;;;;;;;8.38;5.28;;;23.30;67.90;;;;;;4682252;30;20060;-70
2021/06/19 08:14:27;;;;;;;12.13;7.90;;;23.30;67.90;;;;;;4688233;30;20049;-69
2021/06/19 08:16:57;;;;;;;10.88;6.80;;;23.30;67.40;;;;;;4689014;30;20052;-69
2021/06/19 08:19:24;;;;;;;8.45;6.53;;;23.40;67.70;;;;;;4704518;30;20058;-70
2021/06/19 08:21:51;;;;;;;10.32;7.53;;;23.50;67.30;;;;;;4699191;30;20454;-69
2021/06/19 08:24:18;;;;;;;12.15;7.85;;;23.60;66.80;;;;;;4698905;30;20141;-69
2021/06/19 08:26:46;;;;;;;10.93;8.13;;;23.80;66.50;;;;;;4705346;30;20057;-69
2021/06/19 08:29:13;;;;;;;12.65;7.97;;;23.90;66.20;;;;;;4683307;30;20228;-69
2021/06/19 08:31:41;;;;;;;11.93;7.65;;;23.90;66.20;;;;;;4695408;30;20108;-69
2021/06/19 08:34:08;;;;;;;12.10;8.73;;;23.90;66.10;;;;;;4687275;30;20542;-69
2021/06/19 08:36:36;;;;;;;10.82;8.23;;;23.90;66.00;;;;;;4698100;30;20049;-69
2021/06/19 08:39:04;;;;;;;11.32;7.50;;;23.80;66.20;;;;;;4686756;30;20060;-69
2021/06/19 08:41:32;;;;;;;11.23;7.13;;;23.90;66.30;;;;;;4696025;30;20077;-69
2021/06/19 08:44:01;;;;;;;12.48;8.30;;;23.90;66.20;;;;;;4692006;30;20080;-68
2021/06/19 08:46:29;;;;;;;14.13;9.13;;;23.90;66.10;;;;;;4703899;30;20118;-69
2021/06/19 08:48:57;;;;;;;15.52;10.23;;;23.90;66.10;;;;;;4666913;30;20088;-70
2021/06/19 08:51:25;;;;;;;14.30;9.18;;;23.90;65.90;;;;;;4698783;30;20176;-71
2021/06/19 08:53:53;;;;;;;10.40;7.25;;;23.90;66.10;;;;;;4699676;30;20061;-69
2021/06/19 08:56:22;;;;;;;10.77;7.38;;;23.90;66.00;;;;;;4700327;30;20107;-69
2021/06/19 08:58:50;;;;;;;10.85;8.40;;;23.90;66.20;;;;;;4702404;30;20111;-69
2021/06/19 09:01:17;;;;;;;11.77;8.52;;;23.90;65.90;;;;;;4688346;30;20135;-69
2021/06/19 09:03:44;;;;;;;12.77;9.02;;;23.90;65.80;;;;;;4699765;30;20049;-69
2021/06/19 09:06:21;;;;;;;11.68;8.38;;;23.90;65.60;;;;;;4681466;30;20131;-69
2021/06/19 09:09:08;;;;;;;12.15;8.30;;;23.90;65.70;;;;;;4700327;30;20103;-70
2021/06/19 09:11:44;;;;;;;8.82;6.60;;;24.00;65.30;;;;;;4696168;30;20084;-70
2021/06/19 09:14:23;;;;;;;10.80;8.07;;;24.10;65.40;;;;;;4698220;30;20503;-69
2021/06/19 09:17:05;;;;;;;7.32;6.45;;;24.10;65.10;;;;;;4684578;30;20053;-69
2021/06/19 09:19:42;;;;;;;7.25;5.53;;;24.00;65.40;;;;;;4696442;30;20049;-69
2021/06/19 09:22:17;;;;;;;10.30;7.43;;;24.10;65.30;;;;;;4700351;30;20049;-68
2021/06/19 09:24:50;;;;;;;9.15;7.18;;;24.10;64.70;;;;;;4695346;30;20046;-69
2021/06/19 09:27:50;;;;;;;10.23;7.75;;;24.00;65.00;;;;;;4686300;30;20041;-69
2021/06/19 09:30:19;;;;;;;9.38;7.43;;;24.00;64.90;;;;;;4702103;30;20099;-68
2021/06/19 09:32:53;;;;;;;9.57;7.57;;;23.90;64.90;;;;;;4683317;30;20107;-69
2021/06/19 09:35:24;;;;;;;7.57;5.90;;;23.90;65.20;;;;;;4676889;30;20458;-69
2021/06/19 09:37:54;;;;;;;10.13;7.07;;;24.00;65.20;;;;;;4694348;30;20459;-69
2021/06/19 09:40:41;;;;;;;9.35;6.70;;;24.00;64.80;;;;;;4702161;30;20132;-69
2021/06/19 09:43:22;;;;;;;9.38;7.25;;;24.10;64.70;;;;;;4705371;30;20088;-69
2021/06/19 09:46:02;;;;;;;8.52;5.88;;;24.00;64.40;;;;;;4679691;30;20589;-68
2021/06/19 09:48:40;;;;;;;8.70;6.97;;;24.20;64.50;;;;;;4688176;30;20124;-69
2021/06/19 09:51:26;;;;;;;9.77;7.65;;;24.20;64.40;;;;;;4696404;30;20050;-69
2021/06/19 09:54:06;;;;;;;10.93;8.43;;;24.40;64.10;;;;;;4701007;30;20053;-69
2021/06/19 09:56:50;;;;;;;9.88;8.18;;;24.30;63.70;;;;;;4701927;30;20069;-69
2021/06/19 09:59:19;;;;;;;13.77;9.65;;;24.20;63.80;;;;;;4698610;30;20046;-69
2021/06/19 10:01:46;;;;;;;11.82;8.60;;;24.10;64.10;;;;;;4701702;30;20133;-69
2021/06/19 10:04:16;;;;;;;10.82;7.22;;;24.00;64.50;;;;;;4687711;30;20046;-69
2021/06/19 10:06:43;;;;;;;7.30;5.38;;;24.10;64.60;;;;;;4669649;30;20104;-68
2021/06/19 10:09:11;;;;;;;9.00;6.72;;;24.40;64.50;;;;;;4708591;30;20128;-68
2021/06/19 10:11:39;;;;;;;12.07;9.57;;;24.50;63.70;;;;;;4684784;30;20112;-68
2021/06/19 10:14:09;;;;;;;13.25;9.63;;;24.50;63.50;;;;;;4683298;30;20054;-68
2021/06/19 10:16:40;;;;;;;11.52;9.57;;;24.30;63.70;;;;;;4680470;30;20463;-68
2021/06/19 10:19:09;;;;;;;10.65;8.30;;;24.20;63.80;;;;;;4671965;30;20058;-68
2021/06/19 10:21:36;;;;;;;8.93;7.22;;;24.20;63.90;;;;;;4678141;30;20057;-68
2021/06/19 10:24:05;;;;;;;8.48;6.18;;;24.30;64.00;;;;;;4679450;30;20042;-68
2021/06/19 10:26:33;;;;;;;8.02;5.88;;;24.30;64.00;;;;;;4680076;30;20481;-68
2021/06/19 10:29:03;;;;;;;7.30;5.93;;;24.30;64.00;;;;;;4675260;30;20074;-68
2021/06/19 10:31:44;;;;;;;7.72;6.35;;;24.30;64.00;;;;;;4678932;30;20060;-68
2021/06/19 10:34:18;;;;;;;9.75;8.48;;;24.30;64.00;;;;;;4682005;30;20058;-68
2021/06/19 10:36:46;;;;;;;10.80;9.23;;;24.50;63.60;;;;;;4682574;30;20503;-68
2021/06/19 10:39:28;;;;;;;9.60;7.97;;;24.50;63.30;;;;;;4672011;30;20073;-68
2021/06/19 10:41:55;;;;;;;10.93;8.13;;;24.50;63.20;;;;;;4678186;30;20047;-68
2021/06/19 10:44:54;;;;;;;9.05;5.95;;;24.50;62.80;;;;;;4678256;30;20475;-67
2021/06/19 10:47:24;;;;;;;6.95;5.40;;;24.60;62.80;;;;;;4680545;30;20081;-67
2021/06/19 10:49:52;;;;;;;7.53;6.20;;;24.70;62.90;;;;;;4692536;30;20145;-68
2021/06/19 10:52:40;;;;;;;7.85;5.70;;;24.80;62.40;;;;;;4685063;30;20512;-67
2021/06/19 10:55:14;;;;;;;6.55;5.43;;;25.10;62.30;;;;;;4703477;30;20065;-74
2021/06/19 10:58:16;;;;;;;10.00;7.75;;;25.20;61.70;;;;;;4688378;30;20452;-72
2021/06/19 11:00:46;;;;;;;8.13;7.20;;;25.20;61.10;;;;;;4680008;30;20055;-72
2021/06/19 11:03:16;;;;;;;7.90;6.10;;;25.00;61.40;;;;;;4678003;30;20485;-73
2021/06/19 11:05:43;;;;;;;7.60;6.15;;;25.20;61.60;;;;;;4683993;30;20132;-72
2021/06/19 11:08:18;;;;;;;8.38;6.72;;;25.40;61.30;;;;;;4681644;30;20509;-72
2021/06/19 11:10:45;;;;;;;9.20;7.25;;;25.40;61.20;;;;;;4684447;30;20054;-72
2021/06/19 11:13:27;;;;;;;7.38;6.20;;;25.30;61.10;;;;;;4685151;30;20054;-72
2021/06/19 11:15:55;;;;;;;9.68;7.80;;;25.20;61.40;;;;;;4684365;30;20061;-71
2021/06/19 11:18:50;;;;;;;9.77;8.23;;;25.20;61.20;;;;;;4695097;30;20054;-71
2021/06/19 11:21:28;;;;;;;6.63;5.57;;;25.10;61.10;;;;;;4682826;30;20061;-72
2021/06/19 11:24:01;;;;;;;8.75;7.72;;;25.20;61.40;;;;;;4687447;30;20534;-72
2021/06/19 11:26:46;;;;;;;10.07;8.65;;;25.20;61.00;;;;;;4709380;30;20049;-71
2021/06/19 11:29:41;;;;;;;7.80;7.00;;;25.10;60.80;;;;;;4699984;30;20048;-73
2021/06/19 11:32:41;;;;;;;6.95;6.13;;;25.10;61.10;;;;;;4677537;30;20088;-73
2021/06/19 11:35:22;;;;;;;7.30;6.28;;;25.30;61.10;;;;;;4677849;30;20069;-74
2021/06/19 11:37:59;;;;;;;8.63;6.65;;;25.40;60.90;;;;;;4691753;30;20053;-73
2021/06/19 11:40:34;;;;;;;7.60;6.05;;;25.50;60.70;;;;;;4680495;30;20531;-74
2021/06/19 11:43:01;;;;;;;9.70;7.55;;;25.50;60.80;;;;;;4694095;30;20154;-74
2021/06/19 11:45:28;;;;;;;9.25;7.35;;;25.40;60.70;;;;;;4694038;30;20046;-74
2021/06/19 11:48:06;;;;;;;7.38;5.90;;;25.40;60.80;;;;;;4693245;30;20060;-73
2021/06/19 11:50:38;;;;;;;7.43;6.18;;;25.50;60.80;;;;;;4705558;30;20502;-73
2021/06/19 11:53:28;;;;;;;8.50;7.00;;;25.70;60.60;;;;;;4697656;30;20065;-72
2021/06/19 11:56:13;;;;;;;10.88;9.00;;;25.90;60.00;;;;;;4699855;30;20404;-73
2021/06/19 11:58:59;;;;;;;8.68;7.25;;;25.80;59.70;;;;;;4692903;30;20061;-72
2021/06/19 12:01:38;;;;;;;9.02;6.82;;;26.10;59.40;;;;;;4684587;30;20058;-72
2021/06/19 12:04:09;;;;;;;10.35;8.60;;;26.30;59.20;;;;;;4698873;30;20818;-72
2021/06/19 12:06:41;;;;;;;9.83;8.83;;;26.20;59.10;;;;;;4700202;30;20042;-73
2021/06/19 12:09:16;;;;;;;;;;;26.20;59.00;;;;;;4706948;30;20777;-72
2021/06/19 12:11:45;;;;;;;11.80;9.98;;;25.90;59.10;;;;;;4695719;30;20352;-73
2021/06/19 12:14:38;;;;;;;13.15;10.02;;;25.70;59.50;;;;;;4700169;30;20074;-73
2021/06/19 12:17:13;;;;;;;8.57;7.32;;;25.50;59.80;;;;;;4689415;30;20049;-73
2021/06/19 12:19:42;;;;;;;11.73;9.60;;;25.40;60.30;;;;;;4685897;30;20057;-73
2021/06/19 12:22:18;;;;;;;9.38;8.38;;;25.40;60.00;;;;;;4687029;30;20104;-73
2021/06/19 12:24:49;;;;;;;9.48;8.10;;;25.50;60.00;;;;;;4680736;30;20542;-72
2021/06/19 12:27:17;;;;;;;9.25;7.72;;;25.50;60.00;;;;;;4694530;30;20135;-73
2021/06/19 12:29:52;;;;;;;10.43;8.40;;;25.60;60.00;;;;;;4696687;30;20065;-72
2021/06/19 12:32:27;;;;;;;7.97;7.18;;;25.60;59.60;;;;;;4686793;30;20054;-72
2021/06/19 12:35:07;;;;;;;10.40;9.27;;;25.70;59.80;;;;;;4689735;30;20069;-73
2021/06/19 12:37:42;;;;;;;10.88;9.43;;;25.60;59.50;;;;;;4695337;30;20049;-71
2021/06/19 12:40:14;;;;;;;9.85;8.50;;;25.50;59.40;;;;;;4682771;30;20056;-71
2021/06/19 12:42:59;;;;;;;10.73;8.77;;;25.30;59.80;;;;;;4700822;30;20046;-72
2021/06/19 12:45:35;;;;;;;9.43;8.50;;;25.20;59.80;;;;;;4701757;30;20510;-72
2021/06/19 12:48:04;;;;;;;9.80;8.30;;;25.10;60.70;;;;;;4699820;30;20049;-72
2021/06/19 12:50:32;;;;;;;8.40;6.63;;;25.10;60.20;;;;;;4700475;30;20045;-71
2021/06/19 12:53:14;;;;;;;6.75;6.05;;;25.20;60.30;;;;;;4698934;30;20522;-75
2021/06/19 12:56:00;;;;;;;9.30;8.30;;;25.50;60.00;;;;;;4683094;30;20127;-72
2021/06/19 12:58:37;;;;;;;8.77;7.88;;;25.70;59.30;;;;;;4698013;30;20053;-73
2021/06/19 13:01:25;;;;;;;8.25;7.20;;;25.70;59.00;;;;;;4693019;30;20049;-72
2021/06/19 13:04:02;;;;;;;6.93;6.22;;;26.00;58.90;;;;;;4683196;30;20060;-73
2021/06/19 13:06:43;;;;;;;10.10;9.07;;;26.30;58.50;;;;;;4697473;30;20045;-73